Time;durP1;ratioP1;P1;durP2;ratioP2;P2;SDS_P1;SDS_P2;PMS_P1;PMS_P2;Temp;Humidity;BMP_temperature;BMP_pressure;BME280_temperature;BME280_humidity;BME280_pressure;Samples;Min_cycle;Max_cycle;Signal;HPM_P1;HPM_P2
2021/12/27 00:01:47;;;;;;;0.40;0.40;;;;;;;;;;5075472;28;20047;-21
2021/12/27 00:04:13;;;;;;;0.30;0.30;;;;;;;;;;5076754;28;20017;-21
2021/12/27 00:06:40;;;;;;;0.40;0.40;;;;;;;;;;5076379;28;20028;-22
2021/12/27 00:09:06;;;;;;;0.73;0.73;;;;;;;;;;5075999;28;20028;-21
2021/12/27 00:11:32;;;;;;;0.63;0.57;;;;;;;;;;5076331;28;20025;-21
2021/12/27 00:13:58;;;;;;;0.43;0.40;;;;;;;;;;5076225;28;20020;-22
2021/12/27 00:16:24;;;;;;;0.50;0.50;;;;;;;;;;5076779;28;20024;-21
2021/12/27 00:18:50;;;;;;;0.55;0.50;;;;;;;;;;5076740;28;20021;-21
2021/12/27 00:21:17;;;;;;;0.60;0.60;;;;;;;;;;5076081;28;20120;-22
2021/12/27 00:23:43;;;;;;;0.40;0.40;;;;;;;;;;5076302;28;20024;-21
2021/12/27 00:26:10;;;;;;;0.50;0.50;;;;;;;;;;5075894;28;20044;-22
2021/12/27 00:28:36;;;;;;;0.50;0.50;;;;;;;;;;5076195;28;20028;-21
2021/12/27 00:31:03;;;;;;;0.63;0.63;;;;;;;;;;5075922;28;20021;-24
2021/12/27 00:33:30;;;;;;;0.30;0.30;;;;;;;;;;5075811;28;20036;-21
2021/12/27 00:35:57;;;;;;;0.30;0.30;;;;;;;;;;5076085;28;20028;-21
2021/12/27 00:38:23;;;;;;;0.50;0.50;;;;;;;;;;5075721;28;20032;-22
2021/12/27 00:40:49;;;;;;;0.50;0.50;;;;;;;;;;5075702;28;20021;-22
2021/12/27 00:43:16;;;;;;;0.60;0.60;;;;;;;;;;5075525;28;20088;-22
2021/12/27 00:45:43;;;;;;;0.50;0.50;;;;;;;;;;5075588;28;20021;-21
2021/12/27 00:48:09;;;;;;;0.60;0.60;;;;;;;;;;5076020;28;20025;-22
2021/12/27 00:50:36;;;;;;;0.40;0.40;;;;;;;;;;5075534;28;20029;-22
2021/12/27 00:53:02;;;;;;;0.50;0.50;;;;;;;;;;5075346;28;20034;-22
2021/12/27 00:55:28;;;;;;;0.50;0.50;;;;;;;;;;5075688;28;20099;-21
2021/12/27 00:57:54;;;;;;;0.63;0.63;;;;;;;;;;5075639;28;20025;-21
2021/12/27 01:00:23;;;;;;;0.40;0.40;;;;;;;;;;5075849;28;20111;-21
2021/12/27 01:02:49;;;;;;;0.63;0.60;;;;;;;;;;5075454;28;20035;-21
2021/12/27 01:05:15;;;;;;;0.50;0.50;;;;;;;;;;5075529;28;20037;-22
2021/12/27 01:07:42;;;;;;;0.65;0.50;;;;;;;;;;5075406;28;20029;-21
2021/12/27 01:18:07;;;;;;;0.43;0.43;;;;;;;;;;5075159;28;20025;-22
2021/12/27 01:20:35;;;;;;;0.40;0.40;;;;;;;;;;5074415;28;20036;-21
2021/12/27 01:23:01;;;;;;;0.50;0.50;;;;;;;;;;5074927;28;20024;-21
2021/12/27 01:25:27;;;;;;;0.38;0.38;;;;;;;;;;5074802;28;20114;-23
2021/12/27 01:27:54;;;;;;;0.30;0.30;;;;;;;;;;5074813;28;20123;-22
2021/12/27 01:30:22;;;;;;;0.45;0.45;;;;;;;;;;5074904;28;20036;-23
2021/12/27 01:32:52;;;;;;;0.40;0.32;;;;;;;;;;5074777;28;20035;-21
2021/12/27 01:35:19;;;;;;;0.30;0.30;;;;;;;;;;5075729;28;20075;-21
2021/12/27 01:37:46;;;;;;;0.40;0.40;;;;;;;;;;5075333;28;20028;-21
2021/12/27 01:40:13;;;;;;;0.40;0.40;;;;;;;;;;5075006;28;20093;-21
2021/12/27 01:42:59;;;;;;;0.40;0.40;;;;;;;;;;5075015;28;20024;-22
2021/12/27 01:45:26;;;;;;;0.47;0.47;;;;;;;;;;5074918;28;20037;-21
2021/12/27 01:47:52;;;;;;;0.40;0.40;;;;;;;;;;5074573;28;20117;-22
2021/12/27 01:50:18;;;;;;;0.45;0.45;;;;;;;;;;5074920;28;20078;-21
2021/12/27 01:52:44;;;;;;;0.68;0.60;;;;;;;;;;5074858;28;20071;-21
2021/12/27 01:55:11;;;;;;;0.40;0.40;;;;;;;;;;5074612;28;20056;-21
2021/12/27 01:57:37;;;;;;;0.50;0.50;;;;;;;;;;5074600;28;20035;-22
2021/12/27 02:00:04;;;;;;;0.55;0.55;;;;;;;;;;5074846;28;20025;-21
2021/12/27 02:02:31;;;;;;;0.30;0.30;;;;;;;;;;5073474;28;20040;-21
2021/12/27 02:04:57;;;;;;;0.65;0.65;;;;;;;;;;5074516;28;20127;-22
2021/12/27 02:07:24;;;;;;;0.40;0.40;;;;;;;;;;5074429;28;20028;-22
2021/12/27 02:10:02;;;;;;;0.63;0.50;;;;;;;;;;5074417;28;20029;-22
2021/12/27 02:12:29;;;;;;;0.50;0.50;;;;;;;;;;5074609;28;20070;-22
2021/12/27 02:14:55;;;;;;;0.50;0.50;;;;;;;;;;5074994;28;20037;-21
2021/12/27 02:17:22;;;;;;;0.40;0.40;;;;;;;;;;5074723;28;20377;-22
2021/12/27 02:19:49;;;;;;;0.40;0.40;;;;;;;;;;5074416;28;20367;-21
2021/12/27 02:22:15;;;;;;;0.20;0.20;;;;;;;;;;5074332;28;20024;-22
2021/12/27 02:24:41;;;;;;;0.40;0.40;;;;;;;;;;5073209;28;20041;-21
2021/12/27 02:27:07;;;;;;;0.40;0.40;;;;;;;;;;5074532;28;20048;-21
2021/12/27 02:29:34;;;;;;;0.40;0.40;;;;;;;;;;5074592;28;20024;-21
2021/12/27 02:32:00;;;;;;;0.30;0.30;;;;;;;;;;5075574;28;20028;-21
2021/12/27 02:34:27;;;;;;;0.43;0.43;;;;;;;;;;5078184;28;20035;-22
2021/12/27 02:36:53;;;;;;;0.32;0.32;;;;;;;;;;5078670;28;20039;-21
2021/12/27 02:39:19;;;;;;;0.50;0.50;;;;;;;;;;5077471;28;20040;-21
2021/12/27 02:41:45;;;;;;;0.50;0.50;;;;;;;;;;5078492;28;20025;-21
2021/12/27 02:44:11;;;;;;;0.40;0.40;;;;;;;;;;5077901;28;20119;-21
2021/12/27 02:46:37;;;;;;;0.52;0.52;;;;;;;;;;5077808;28;20067;-22
2021/12/27 02:49:04;;;;;;;0.60;0.30;;;;;;;;;;5078090;28;20021;-23
2021/12/27 02:51:31;;;;;;;0.60;0.60;;;;;;;;;;5077787;28;20025;-22
2021/12/27 02:53:58;;;;;;;0.57;0.57;;;;;;;;;;5077608;28;20032;-21
2021/12/27 02:56:24;;;;;;;0.50;0.50;;;;;;;;;;5078501;28;20467;-22
2021/12/27 02:58:50;;;;;;;0.40;0.40;;;;;;;;;;5077668;28;20459;-22
2021/12/27 03:01:21;;;;;;;0.40;0.40;;;;;;;;;;5077593;28;20030;-21
2021/12/27 03:03:47;;;;;;;0.55;0.45;;;;;;;;;;5077837;28;20399;-22
2021/12/27 03:06:14;;;;;;;0.50;0.50;;;;;;;;;;5077764;28;20090;-21
2021/12/27 03:08:44;;;;;;;0.40;0.40;;;;;;;;;;5077375;28;20036;-23
2021/12/27 03:11:11;;;;;;;0.50;0.50;;;;;;;;;;5077724;28;20033;-23
2021/12/27 03:13:38;;;;;;;0.40;0.40;;;;;;;;;;5077288;28;20103;-21
2021/12/27 03:16:07;;;;;;;0.50;0.50;;;;;;;;;;5077367;28;20028;-23
2021/12/27 03:18:34;;;;;;;0.40;0.40;;;;;;;;;;5077577;28;20482;-21
2021/12/27 03:21:01;;;;;;;0.52;0.50;;;;;;;;;;5077270;28;20025;-21
2021/12/27 03:23:27;;;;;;;0.30;0.30;;;;;;;;;;5077174;28;20037;-21
2021/12/27 03:25:53;;;;;;;0.40;0.40;;;;;;;;;;5077083;28;20087;-21
2021/12/27 03:28:20;;;;;;;0.38;0.38;;;;;;;;;;5077045;28;20076;-21
2021/12/27 03:30:46;;;;;;;0.20;0.20;;;;;;;;;;5077413;28;20553;-21
2021/12/27 03:33:13;;;;;;;0.30;0.30;;;;;;;;;;5077125;28;20032;-21
2021/12/27 03:35:48;;;;;;;0.40;0.40;;;;;;;;;;5077517;28;20044;-22
2021/12/27 03:38:14;;;;;;;0.38;0.38;;;;;;;;;;5077221;28;20469;-22
2021/12/27 03:40:41;;;;;;;0.30;0.30;;;;;;;;;;5076839;28;20182;-21
2021/12/27 03:43:08;;;;;;;0.38;0.38;;;;;;;;;;5075989;28;20451;-21
2021/12/27 03:45:35;;;;;;;0.40;0.40;;;;;;;;;;5076788;28;20024;-22
2021/12/27 03:48:02;;;;;;;0.25;0.25;;;;;;;;;;5076906;28;20036;-22
2021/12/27 03:50:28;;;;;;;0.43;0.43;;;;;;;;;;5077175;28;20099;-22
2021/12/27 03:52:56;;;;;;;0.52;0.30;;;;;;;;;;5076811;28;20025;-25
2021/12/27 03:55:23;;;;;;;0.50;0.50;;;;;;;;;;5076839;28;20020;-22
2021/12/27 03:57:55;;;;;;;0.50;0.35;;;;;;;;;;5076514;28;20028;-22
2021/12/27 04:02:59;;;;;;;0.30;0.30;;;;;;;;;;5076420;28;20028;-22
2021/12/27 04:05:26;;;;;;;0.57;0.47;;;;;;;;;;5076465;28;20042;-22
2021/12/27 04:08:00;;;;;;;0.20;0.20;;;;;;;;;;5076593;28;20039;-22
2021/12/27 04:10:26;;;;;;;0.60;0.60;;;;;;;;;;5076914;28;20340;-21
2021/12/27 04:12:52;;;;;;;0.40;0.40;;;;;;;;;;5076364;28;20027;-21
2021/12/27 04:15:18;;;;;;;0.50;0.50;;;;;;;;;;5076260;28;20408;-22
2021/12/27 04:17:45;;;;;;;0.50;0.50;;;;;;;;;;5076437;28;20029;-22
2021/12/27 04:20:11;;;;;;;0.45;0.45;;;;;;;;;;5076414;28;20048;-22
2021/12/27 04:22:37;;;;;;;0.30;0.30;;;;;;;;;;5076356;28;20028;-21
2021/12/27 04:25:04;;;;;;;0.30;0.30;;;;;;;;;;5076364;28;20057;-21
2021/12/27 04:27:30;;;;;;;0.55;0.55;;;;;;;;;;5076469;28;20051;-21
2021/12/27 04:29:56;;;;;;;0.38;0.38;;;;;;;;;;5076249;28;20035;-21
2021/12/27 04:32:22;;;;;;;0.38;0.38;;;;;;;;;;5075901;28;20025;-22
2021/12/27 04:34:48;;;;;;;0.45;0.45;;;;;;;;;;5076190;28;20047;-22
2021/12/27 04:37:15;;;;;;;0.43;0.43;;;;;;;;;;5075817;28;20028;-22
2021/12/27 04:39:41;;;;;;;0.30;0.30;;;;;;;;;;5076023;28;20028;-21
2021/12/27 04:42:08;;;;;;;0.35;0.35;;;;;;;;;;5075873;28;20055;-23
2021/12/27 04:44:34;;;;;;;0.30;0.30;;;;;;;;;;5075583;28;20043;-21
2021/12/27 04:47:01;;;;;;;0.30;0.30;;;;;;;;;;5075774;28;20068;-22
2021/12/27 04:49:27;;;;;;;0.38;0.38;;;;;;;;;;5075526;28;20035;-21
2021/12/27 04:51:53;;;;;;;0.40;0.40;;;;;;;;;;5075736;28;20040;-21
2021/12/27 04:54:20;;;;;;;0.50;0.50;;;;;;;;;;5075469;28;20099;-21
2021/12/27 04:56:47;;;;;;;0.50;0.40;;;;;;;;;;5075371;28;20024;-22
2021/12/27 04:59:13;;;;;;;0.52;0.47;;;;;;;;;;5075279;28;20013;-21
2021/12/27 05:01:39;;;;;;;0.43;0.43;;;;;;;;;;5075837;28;20028;-21
2021/12/27 05:04:05;;;;;;;0.50;0.50;;;;;;;;;;5075110;28;20463;-21
2021/12/27 05:06:32;;;;;;;0.55;0.55;;;;;;;;;;5075456;28;20043;-21
2021/12/27 05:08:58;;;;;;;0.52;0.43;;;;;;;;;;5074893;28;20028;-22
2021/12/27 05:11:24;;;;;;;0.47;0.45;;;;;;;;;;5075016;28;20037;-22
2021/12/27 05:13:50;;;;;;;0.50;0.50;;;;;;;;;;5074920;28;20404;-21
2021/12/27 05:16:17;;;;;;;0.50;0.50;;;;;;;;;;5075582;28;20343;-21
2021/12/27 05:18:43;;;;;;;2.85;0.55;;;;;;;;;;5075306;28;20029;-21
2021/12/27 05:21:09;;;;;;;2.03;0.40;;;;;;;;;;5075114;28;20052;-22
2021/12/27 05:23:36;;;;;;;4.20;0.70;;;;;;;;;;5074752;28;20039;-23
2021/12/27 05:26:02;;;;;;;0.43;0.30;;;;;;;;;;5074777;28;20135;-21
2021/12/27 05:28:28;;;;;;;2.25;0.50;;;;;;;;;;5074889;28;20393;-21
2021/12/27 05:30:54;;;;;;;0.63;0.50;;;;;;;;;;5073825;28;20449;-22
2021/12/27 05:33:21;;;;;;;24.88;1.80;;;;;;;;;;5073652;28;20057;-22
2021/12/27 05:35:47;;;;;;;0.30;0.30;;;;;;;;;;5074622;28;20400;-22
2021/12/27 05:38:14;;;;;;;0.43;0.30;;;;;;;;;;5074617;28;20452;-21
2021/12/27 05:40:40;;;;;;;2.05;0.50;;;;;;;;;;5074642;28;20147;-23
2021/12/27 05:43:07;;;;;;;7.00;0.50;;;;;;;;;;5074828;28;20082;-22
2021/12/27 05:45:35;;;;;;;2.22;0.47;;;;;;;;;;5074833;28;20032;-22
2021/12/27 05:48:01;;;;;;;1.38;0.50;;;;;;;;;;5073374;28;20451;-22
2021/12/27 05:50:27;;;;;;;2.13;0.50;;;;;;;;;;5074679;28;20096;-22
2021/12/27 05:52:54;;;;;;;6.13;0.77;;;;;;;;;;5074729;28;20448;-22
2021/12/27 05:55:20;;;;;;;9.15;0.80;;;;;;;;;;5074538;28;20352;-22
2021/12/27 05:57:46;;;;;;;2.20;0.73;;;;;;;;;;5074388;28;20024;-23
2021/12/27 06:03:16;;;;;;;4.40;0.70;;;;;;;;;;5384179;22;20460;-25
2021/12/27 06:05:42;;;;;;;2.63;0.60;;;;;;;;;;5034473;28;20028;-26
2021/12/27 06:08:08;;;;;;;2.30;1.70;;;;;;;;;;5037765;28;20025;-26
2021/12/27 06:10:34;;;;;;;4.40;0.55;;;;;;;;;;5038630;28;20049;-26
2021/12/27 06:13:00;;;;;;;2.78;0.47;;;;;;;;;;5038513;28;20412;-26
2021/12/27 06:15:27;;;;;;;4.53;0.93;;;;;;;;;;5038553;28;20083;-26
2021/12/27 06:17:54;;;;;;;2.95;1.02;;;;;;;;;;5038772;28;20056;-26
2021/12/27 06:20:20;;;;;;;11.73;1.10;;;;;;;;;;5039103;28;20116;-26
2021/12/27 06:22:51;;;;;;;5.72;1.15;;;;;;;;;;5038466;28;20036;-26
2021/12/27 06:25:17;;;;;;;3.55;0.90;;;;;;;;;;5038582;28;20360;-26
2021/12/27 06:27:43;;;;;;;5.82;1.05;;;;;;;;;;5038536;28;20036;-26
2021/12/27 06:30:10;;;;;;;23.42;1.25;;;;;;;;;;5038253;28;20094;-26
2021/12/27 06:32:37;;;;;;;15.52;2.55;;;;;;;;;;5038163;28;20026;-26
2021/12/27 06:35:04;;;;;;;9.45;1.20;;;;;;;;;;5038363;28;20044;-26
2021/12/27 06:37:30;;;;;;;5.95;0.90;;;;;;;;;;5038881;28;20033;-26
2021/12/27 06:39:57;;;;;;;16.25;1.13;;;;;;;;;;5038064;28;20579;-26
2021/12/27 06:42:23;;;;;;;6.53;0.98;;;;;;;;;;5037852;28;20109;-26
2021/12/27 06:44:49;;;;;;;5.32;1.15;;;;;;;;;;5038142;28;20033;-27
2021/12/27 06:47:15;;;;;;;12.98;1.10;;;;;;;;;;5037758;28;20025;-26
2021/12/27 06:49:42;;;;;;;35.03;1.83;;;;;;;;;;5037574;28;20025;-26
2021/12/27 06:52:08;;;;;;;7.53;1.00;;;;;;;;;;5037737;28;20037;-26
2021/12/27 06:54:35;;;;;;;9.18;0.80;;;;;;;;;;5037498;28;20029;-26
2021/12/27 06:57:01;;;;;;;9.88;1.25;;;;;;;;;;5037907;28;20086;-26
2021/12/27 06:59:28;;;;;;;13.25;1.60;;;;;;;;;;5037558;28;20448;-27
2021/12/27 07:01:55;;;;;;;27.33;1.88;;;;;;;;;;5037548;28;20033;-25
2021/12/27 07:04:21;;;;;;;11.23;1.10;;;;;;;;;;5037161;28;20112;-27
2021/12/27 07:06:47;;;;;;;2.75;0.68;;;;;;;;;;5037436;28;20116;-26
2021/12/27 07:09:13;;;;;;;8.63;0.90;;;;;;;;;;5037509;28;20044;-26
2021/12/27 07:11:41;;;;;;;7.72;2.42;;;;;;;;;;5037487;28;20407;-27
2021/12/27 07:14:07;;;;;;;7.88;1.33;;;;;;;;;;5037447;28;20128;-27
2021/12/27 07:16:33;;;;;;;9.27;1.08;;;;;;;;;;5037186;28;20060;-27
2021/12/27 07:19:00;;;;;;;4.20;0.88;;;;;;;;;;5037197;28;20025;-27
2021/12/27 07:21:26;;;;;;;10.80;1.27;;;;;;;;;;5037703;28;20052;-27
2021/12/27 07:23:52;;;;;;;8.30;2.00;;;;;;;;;;5036976;28;20025;-26
2021/12/27 07:26:18;;;;;;;11.88;1.00;;;;;;;;;;5036919;28;20029;-27
2021/12/27 07:28:45;;;;;;;9.20;1.58;;;;;;;;;;5036866;28;20033;-27
2021/12/27 07:31:11;;;;;;;11.23;1.52;;;;;;;;;;5036970;28;20029;-26
2021/12/27 07:33:37;;;;;;;9.88;0.80;;;;;;;;;;5036804;28;20028;-26
2021/12/27 07:36:07;;;;;;;7.53;0.85;;;;;;;;;;5037207;28;20411;-26
2021/12/27 07:38:34;;;;;;;4.57;0.70;;;;;;;;;;5036736;28;20033;-27
2021/12/27 07:41:00;;;;;;;9.25;0.90;;;;;;;;;;5036754;28;20080;-26
2021/12/27 07:43:26;;;;;;;10.85;0.93;;;;;;;;;;5036623;28;20433;-26
2021/12/27 07:45:52;;;;;;;10.40;1.65;;;;;;;;;;5036753;28;20091;-27
2021/12/27 07:48:18;;;;;;;15.15;1.10;;;;;;;;;;5036781;28;20116;-27
2021/12/27 07:50:44;;;;;;;4.97;0.88;;;;;;;;;;5036529;28;20071;-26
2021/12/27 07:53:11;;;;;;;8.30;1.15;;;;;;;;;;5036459;28;20030;-27
2021/12/27 07:55:37;;;;;;;13.70;1.00;;;;;;;;;;5036732;28;20022;-26
2021/12/27 07:58:03;;;;;;;6.53;1.13;;;;;;;;;;5036359;28;20075;-26
2021/12/27 08:00:30;;;;;;;6.93;1.10;;;;;;;;;;5036047;28;20040;-27
2021/12/27 08:02:56;;;;;;;15.27;1.08;;;;;;;;;;5036119;28;20060;-27
2021/12/27 08:05:22;;;;;;;11.50;1.15;;;;;;;;;;5036545;28;20098;-26
2021/12/27 08:07:48;;;;;;;7.50;1.17;;;;;;;;;;5036035;28;20040;-26
2021/12/27 08:10:15;;;;;;;7.20;2.38;;;;;;;;;;5036093;28;20036;-26
2021/12/27 08:12:41;;;;;;;5.20;1.00;;;;;;;;;;5036341;28;20029;-26
2021/12/27 08:15:08;;;;;;;2.60;1.50;;;;;;;;;;5036067;28;20095;-27
2021/12/27 08:17:35;;;;;;;11.30;1.45;;;;;;;;;;5018613;28;20053;-27
2021/12/27 08:20:01;;;;;;;12.52;0.73;;;;;;;;;;5036671;28;20452;-27
2021/12/27 08:22:27;;;;;;;14.25;1.42;;;;;;;;;;5036166;28;20044;-27
2021/12/27 08:24:53;;;;;;;13.80;1.65;;;;;;;;;;5035815;28;20025;-26
2021/12/27 08:27:20;;;;;;;3.15;1.00;;;;;;;;;;5018240;28;20037;-26
2021/12/27 08:29:47;;;;;;;9.15;1.38;;;;;;;;;;5035209;28;20034;-26
2021/12/27 08:32:13;;;;;;;10.05;1.00;;;;;;;;;;5035594;28;20045;-27
2021/12/27 08:34:39;;;;;;;6.75;1.00;;;;;;;;;;5035691;28;20034;-27
2021/12/27 08:37:05;;;;;;;7.63;1.13;;;;;;;;;;5035717;28;20460;-27
2021/12/27 08:39:34;;;;;;;7.25;1.73;;;;;;;;;;5017991;28;20345;-27
2021/12/27 08:42:01;;;;;;;6.25;2.05;;;;;;;;;;5035604;28;20057;-26
2021/12/27 08:44:27;;;;;;;16.60;1.15;;;;;;;;;;5035440;28;20087;-27
2021/12/27 08:46:53;;;;;;;10.93;1.73;;;;;;;;;;5035572;28;20026;-27
2021/12/27 08:49:19;;;;;;;14.15;1.20;;;;;;;;;;5017903;28;20029;-27
2021/12/27 08:51:46;;;;;;;9.50;1.50;;;;;;;;;;5035215;28;20021;-27
2021/12/27 08:54:13;;;;;;;15.57;1.70;;;;;;;;;;5035215;28;20034;-26
2021/12/27 08:56:39;;;;;;;13.20;2.15;;;;;;;;;;5035073;28;20029;-26
2021/12/27 08:59:05;;;;;;;11.60;1.70;;;;;;;;;;5035871;28;20033;-27
2021/12/27 09:01:32;;;;;;;9.95;1.95;;;;;;;;;;5035361;28;20032;-27
2021/12/27 09:03:58;;;;;;;21.08;2.03;;;;;;;;;;5035428;28;20460;-26
2021/12/27 09:06:24;;;;;;;15.95;1.88;;;;;;;;;;5034988;28;20029;-27
2021/12/27 09:08:50;;;;;;;12.75;2.95;;;;;;;;;;5035122;28;20403;-27
2021/12/27 09:11:17;;;;;;;10.88;1.23;;;;;;;;;;5035259;28;20033;-27
2021/12/27 09:13:43;;;;;;;11.25;2.45;;;;;;;;;;5035070;28;20022;-27
2021/12/27 09:16:12;;;;;;;19.42;2.60;;;;;;;;;;5035149;28;20032;-26
2021/12/27 09:18:38;;;;;;;25.35;2.22;;;;;;;;;;5034851;28;20041;-27
2021/12/27 09:21:05;;;;;;;24.20;1.90;;;;;;;;;;5035182;28;20444;-27
2021/12/27 09:23:31;;;;;;;24.63;3.38;;;;;;;;;;5034790;28;20040;-27
2021/12/27 09:25:57;;;;;;;10.85;2.08;;;;;;;;;;5035046;28;20029;-26
2021/12/27 09:28:23;;;;;;;16.40;2.42;;;;;;;;;;5035069;28;20037;-27
2021/12/27 09:30:50;;;;;;;12.00;1.42;;;;;;;;;;5034767;28;20025;-26
2021/12/27 09:33:16;;;;;;;18.98;1.77;;;;;;;;;;5034617;28;20017;-27
2021/12/27 09:35:42;;;;;;;16.73;2.33;;;;;;;;;;5034966;28;20021;-27
2021/12/27 09:38:08;;;;;;;30.42;4.95;;;;;;;;;;5034883;28;20029;-27
2021/12/27 09:40:35;;;;;;;19.55;3.03;;;;;;;;;;5034746;28;20059;-27
2021/12/27 09:43:01;;;;;;;11.30;1.63;;;;;;;;;;5033872;28;20025;-27
2021/12/27 09:45:27;;;;;;;11.57;1.38;;;;;;;;;;5034845;28;20037;-27
2021/12/27 09:47:54;;;;;;;21.30;3.45;;;;;;;;;;5035061;28;20418;-27
2021/12/27 09:50:27;;;;;;;18.75;2.70;;;;;;;;;;5034559;28;20022;-27
2021/12/27 09:52:53;;;;;;;25.10;2.50;;;;;;;;;;5034427;28;20053;-27
2021/12/27 09:55:19;;;;;;;32.88;3.38;;;;;;;;;;5034461;28;20030;-27
2021/12/27 09:57:46;;;;;;;10.25;2.20;;;;;;;;;;5034394;28;20033;-27
2021/12/27 10:00:12;;;;;;;14.60;2.30;;;;;;;;;;5034883;28;20025;-26
2021/12/27 10:02:40;;;;;;;17.10;1.65;;;;;;;;;;5034281;28;20156;-27
2021/12/27 10:05:06;;;;;;;20.10;2.33;;;;;;;;;;5034628;28;20124;-27
2021/12/27 10:07:35;;;;;;;14.90;1.75;;;;;;;;;;5034548;28;20029;-27
2021/12/27 10:10:01;;;;;;;17.33;3.92;;;;;;;;;;5034456;28;20055;-27
2021/12/27 10:12:28;;;;;;;24.08;3.25;;;;;;;;;;5034203;28;20018;-26
2021/12/27 10:14:58;;;;;;;27.52;4.30;;;;;;;;;;5034250;28;20030;-27
2021/12/27 10:17:25;;;;;;;25.73;2.15;;;;;;;;;;5034772;28;20032;-27
2021/12/27 10:19:53;;;;;;;20.40;2.17;;;;;;;;;;5034257;28;20412;-27
2021/12/27 10:22:20;;;;;;;14.65;1.55;;;;;;;;;;5016845;28;20056;-27
2021/12/27 10:24:49;;;;;;;15.50;2.67;;;;;;;;;;5034056;28;20451;-27
2021/12/27 10:27:16;;;;;;;11.93;1.98;;;;;;;;;;5034041;28;20033;-26
2021/12/27 10:29:42;;;;;;;16.23;2.00;;;;;;;;;;5034385;28;20029;-27
2021/12/27 10:32:14;;;;;;;9.90;2.45;;;;;;;;;;5034300;28;20057;-26
2021/12/27 10:34:43;;;;;;;8.70;2.30;;;;;;;;;;5033906;28;20459;-27
2021/12/27 10:37:29;;;;;;;20.13;2.42;;;;;;;;;;5034203;28;20351;-27
2021/12/27 10:39:57;;;;;;;10.77;1.27;;;;;;;;;;5033855;28;20030;-26
2021/12/27 10:42:36;;;;;;;14.38;1.65;;;;;;;;;;5034284;28;20029;-27
2021/12/27 10:45:11;;;;;;;19.30;3.05;;;;;;;;;;5033930;28;20029;-27
2021/12/27 10:47:40;;;;;;;12.20;1.70;;;;;;;;;;5033571;28;20033;-26
2021/12/27 10:50:10;;;;;;;12.15;2.53;;;;;;;;;;5033573;28;20479;-27
2021/12/27 10:53:05;;;;;;;20.42;2.72;;;;;;;;;;5034270;28;20399;-27
2021/12/27 10:55:38;;;;;;;24.45;1.92;;;;;;;;;;5016833;28;20526;-27
2021/12/27 10:58:24;;;;;;;35.60;5.55;;;;;;;;;;5037500;28;20047;-27
2021/12/27 11:00:52;;;;;;;22.38;2.83;;;;;;;;;;5037467;28;20119;-27
2021/12/27 11:03:26;;;;;;;11.95;1.50;;;;;;;;;;5037033;28;20083;-26
2021/12/27 11:05:52;;;;;;;20.15;2.67;;;;;;;;;;5037213;28;20025;-26
2021/12/27 11:08:18;;;;;;;16.00;1.90;;;;;;;;;;5037326;28;20030;-27
2021/12/27 11:10:44;;;;;;;17.20;2.95;;;;;;;;;;5037522;28;20025;-26
2021/12/27 11:13:11;;;;;;;18.05;2.47;;;;;;;;;;5037259;28;20356;-27
2021/12/27 11:15:39;;;;;;;18.80;2.45;;;;;;;;;;5037250;28;20033;-26
2021/12/27 11:18:06;;;;;;;16.27;2.25;;;;;;;;;;5037308;28;20029;-27
2021/12/27 11:20:32;;;;;;;10.48;1.88;;;;;;;;;;5036956;28;20105;-27
2021/12/27 11:22:59;;;;;;;31.42;2.67;;;;;;;;;;5019401;28;20139;-25
2021/12/27 11:25:29;;;;;;;16.70;1.67;;;;;;;;;;5036960;28;20052;-25
2021/12/27 11:27:56;;;;;;;14.15;1.70;;;;;;;;;;5036772;28;20025;-27
2021/12/27 11:30:27;;;;;;;11.23;1.88;;;;;;;;;;5036801;28;20026;-26
2021/12/27 11:32:59;;;;;;;20.08;3.30;;;;;;;;;;5036857;28;20115;-27
2021/12/27 11:35:25;;;;;;;12.63;1.98;;;;;;;;;;5037323;28;20030;-27
2021/12/27 11:37:52;;;;;;;16.90;1.85;;;;;;;;;;5037279;28;20038;-27
2021/12/27 11:40:18;;;;;;;12.50;1.60;;;;;;;;;;5036729;28;20032;-27
2021/12/27 11:42:54;;;;;;;18.88;2.45;;;;;;;;;;5036561;28;20033;-27
2021/12/27 11:45:39;;;;;;;8.93;1.67;;;;;;;;;;5036520;28;20047;-26
2021/12/27 11:48:12;;;;;;;10.60;1.77;;;;;;;;;;5036400;28;20082;-26
2021/12/27 11:51:11;;;;;;;23.52;2.60;;;;;;;;;;5036764;28;20035;-28
2021/12/27 11:53:44;;;;;;;23.63;2.30;;;;;;;;;;4982682;28;20082;-26
2021/12/27 11:56:11;;;;;;;15.80;1.60;;;;;;;;;;5036558;28;20367;-27
2021/12/27 11:58:45;;;;;;;12.48;2.60;;;;;;;;;;5036555;28;20038;-27
2021/12/27 12:01:23;;;;;;;27.83;3.45;;;;;;;;;;5036636;28;20025;-26
2021/12/27 12:03:51;;;;;;;23.05;2.35;;;;;;;;;;5035677;28;20057;-26
2021/12/27 12:06:36;;;;;;;18.88;2.03;;;;;;;;;;5035678;28;20460;-27
2021/12/27 12:09:08;;;;;;;18.30;2.08;;;;;;;;;;5036717;28;20037;-27
2021/12/27 12:11:36;;;;;;;27.63;3.05;;;;;;;;;;5036545;28;20295;-27
2021/12/27 12:14:35;;;;;;;35.65;4.15;;;;;;;;;;5036326;28;20051;-27
2021/12/27 12:17:03;;;;;;;17.92;2.25;;;;;;;;;;4982911;28;20033;-27
2021/12/27 12:19:37;;;;;;;18.50;2.88;;;;;;;;;;5036097;28;20025;-27
2021/12/27 12:22:04;;;;;;;24.38;3.40;;;;;;;;;;5036261;28;20053;-26
2021/12/27 12:24:30;;;;;;;15.25;2.10;;;;;;;;;;5035794;28;20029;-27
2021/12/27 12:26:56;;;;;;;17.52;2.53;;;;;;;;;;5035806;28;20399;-27
2021/12/27 12:29:24;;;;;;;20.70;1.83;;;;;;;;;;5035718;28;20087;-26
2021/12/27 12:32:00;;;;;;;12.55;2.95;;;;;;;;;;5035380;28;20037;-27
2021/12/27 12:34:27;;;;;;;22.85;2.67;;;;;;;;;;5035824;28;20017;-27
2021/12/27 12:37:04;;;;;;;18.92;2.58;;;;;;;;;;5036244;28;20040;-27
2021/12/27 12:39:39;;;;;;;19.00;2.20;;;;;;;;;;5035404;28;20044;-27
2021/12/27 12:42:11;;;;;;;15.05;2.38;;;;;;;;;;5035592;28;20052;-27
2021/12/27 12:44:50;;;;;;;23.67;2.10;;;;;;;;;;5035381;28;20388;-26
2021/12/27 12:47:16;;;;;;;22.77;2.35;;;;;;;;;;5035257;28;20038;-27
2021/12/27 12:49:43;;;;;;;17.13;2.33;;;;;;;;;;5035187;28;20507;-27
2021/12/27 12:52:09;;;;;;;15.77;2.20;;;;;;;;;;5035131;28;20017;-26
2021/12/27 12:54:38;;;;;;;17.58;2.28;;;;;;;;;;5035421;28;20083;-27
2021/12/27 12:57:11;;;;;;;28.40;3.00;;;;;;;;;;5035370;28;20033;-27
2021/12/27 12:59:45;;;;;;;28.15;3.25;;;;;;;;;;5035621;28;20468;-27
2021/12/27 13:02:13;;;;;;;19.15;2.92;;;;;;;;;;5034825;28;20487;-26
2021/12/27 13:04:49;;;;;;;22.13;2.20;;;;;;;;;;5034796;28;20107;-26
2021/12/27 13:07:34;;;;;;;15.27;1.65;;;;;;;;;;5035163;28;20413;-26
2021/12/27 13:10:01;;;;;;;19.38;2.97;;;;;;;;;;5034979;28;20025;-26
2021/12/27 13:12:28;;;;;;;17.92;1.95;;;;;;;;;;5034885;28;20021;-26
2021/12/27 13:14:55;;;;;;;17.20;2.42;;;;;;;;;;5035274;28;20330;-26
2021/12/27 13:17:23;;;;;;;33.10;2.35;;;;;;;;;;5035047;28;20356;-27
2021/12/27 13:20:02;;;;;;;18.42;1.98;;;;;;;;;;5035096;28;20029;-26
2021/12/27 13:22:46;;;;;;;20.17;3.05;;;;;;;;;;5034654;28;20030;-27
2021/12/27 13:25:15;;;;;;;14.05;2.42;;;;;;;;;;5034917;28;20147;-27
2021/12/27 13:27:41;;;;;;;21.88;2.60;;;;;;;;;;5034851;28;20112;-27
2021/12/27 13:30:15;;;;;;;20.42;3.40;;;;;;;;;;5034617;28;20029;-27
2021/12/27 13:32:44;;;;;;;23.92;2.22;;;;;;;;;;5034809;28;20036;-27
2021/12/27 13:35:13;;;;;;;35.15;5.50;;;;;;;;;;5034463;28;20025;-28
2021/12/27 13:37:40;;;;;;;17.73;1.95;;;;;;;;;;5034349;28;20040;-27
2021/12/27 13:40:08;;;;;;;16.65;2.42;;;;;;;;;;5034779;28;20037;-27
2021/12/27 13:42:34;;;;;;;13.82;1.52;;;;;;;;;;5034476;28;20428;-27
2021/12/27 13:45:11;;;;;;;27.60;2.88;;;;;;;;;;5034838;28;20029;-27
2021/12/27 13:47:38;;;;;;;14.18;2.33;;;;;;;;;;5034733;28;20025;-27
2021/12/27 13:50:04;;;;;;;28.55;2.88;;;;;;;;;;5034697;28;20025;-27
2021/12/27 13:52:43;;;;;;;25.17;3.70;;;;;;;;;;5034380;28;20022;-27
2021/12/27 13:55:09;;;;;;;23.48;2.28;;;;;;;;;;5034949;28;20026;-27
2021/12/27 13:57:43;;;;;;;32.42;3.53;;;;;;;;;;5034549;28;20095;-27
2021/12/27 14:00:10;;;;;;;14.60;3.90;;;;;;;;;;5034271;28;20456;-27
2021/12/27 14:02:41;;;;;;;20.67;2.63;;;;;;;;;;5033936;28;20037;-27
2021/12/27 14:05:08;;;;;;;16.20;2.83;;;;;;;;;;5034165;28;20084;-25
2021/12/27 14:07:34;;;;;;;9.80;2.13;;;;;;;;;;5034044;28;20097;-25
2021/12/27 14:10:00;;;;;;;14.98;3.38;;;;;;;;;;5034313;28;20029;-25
2021/12/27 14:12:30;;;;;;;19.73;2.92;;;;;;;;;;5034225;28;20306;-25
2021/12/27 14:15:01;;;;;;;14.60;2.50;;;;;;;;;;5034612;28;20029;-25
2021/12/27 14:17:30;;;;;;;37.80;3.55;;;;;;;;;;5034086;28;20029;-25
2021/12/27 14:20:02;;;;;;;34.70;4.63;;;;;;;;;;5034012;28;20112;-25
2021/12/27 14:22:41;;;;;;;35.47;2.72;;;;;;;;;;5033905;28;20041;-26
2021/12/27 14:25:09;;;;;;;29.05;3.90;;;;;;;;;;5033992;28;20140;-26
2021/12/27 14:27:35;;;;;;;30.88;3.42;;;;;;;;;;5034611;28;20021;-26
2021/12/27 14:30:10;;;;;;;20.00;2.17;;;;;;;;;;5038298;28;20341;-26
2021/12/27 14:32:37;;;;;;;33.38;4.80;;;;;;;;;;5037877;28;20040;-26
2021/12/27 14:35:03;;;;;;;34.42;3.22;;;;;;;;;;5037993;28;20026;-26
2021/12/27 14:37:30;;;;;;;29.73;2.70;;;;;;;;;;5037898;28;20140;-26
2021/12/27 14:39:56;;;;;;;21.15;2.28;;;;;;;;;;5038099;28;20040;-26
2021/12/27 14:42:25;;;;;;;22.25;3.90;;;;;;;;;;5037938;28;20030;-26
2021/12/27 14:44:56;;;;;;;22.27;2.83;;;;;;;;;;5037644;28;20037;-26
2021/12/27 14:47:22;;;;;;;;;;;;;;;;;;5037994;28;20044;-26
2021/12/27 14:49:49;;;;;;;16.83;3.67;;;;;;;;;;5037954;28;20004;-26
2021/12/27 14:52:15;;;;;;;15.15;2.92;;;;;;;;;;5037459;28;20028;-26
2021/12/27 14:54:42;;;;;;;20.30;3.28;;;;;;;;;;5037585;28;20025;-26
2021/12/27 14:57:09;;;;;;;26.35;3.92;;;;;;;;;;5037723;28;20022;-26